sensor_id;sensor_type;location;lat;lon;timestamp;pressure;altitude;pressure_sealevel;temperature;humidity
9717;BME280;4897;43.570;27.832;2024-02-23T00:01:04;98993.59;;;6.29;100.00
9717;BME280;4897;43.570;27.832;2024-02-23T00:03:32;98952.91;;;6.16;100.00
9717;BME280;4897;43.570;27.832;2024-02-23T00:06:00;98997.47;;;6.36;100.00
9717;BME280;4897;43.570;27.832;2024-02-23T00:08:28;98992.09;;;6.38;100.00
9717;BME280;4897;43.570;27.832;2024-02-23T00:10:55;98981.38;;;6.14;100.00
9717;BME280;4897;43.570;27.832;2024-02-23T00:13:22;98987.41;;;6.29;100.00
9717;BME280;4897;43.570;27.832;2024-02-23T00:15:49;98987.59;;;6.26;100.00
9717;BME280;4897;43.570;27.832;2024-02-23T00:18:17;98980.72;;;6.36;100.00
9717;BME280;4897;43.570;27.832;2024-02-23T00:20:44;98956.50;;;6.28;100.00
9717;BME280;4897;43.570;27.832;2024-02-23T00:23:11;98927.97;;;6.19;100.00
9717;BME280;4897;43.570;27.832;2024-02-23T00:25:39;98969.88;;;6.39;100.00
9717;BME280;4897;43.570;27.832;2024-02-23T00:28:06;98967.22;;;6.39;100.00
9717;BME280;4897;43.570;27.832;2024-02-23T00:30:33;98926.56;;;6.13;100.00
9717;BME280;4897;43.570;27.832;2024-02-23T00:33:00;98957.78;;;6.35;100.00
9717;BME280;4897;43.570;27.832;2024-02-23T00:35:27;98955.13;;;6.35;100.00
9717;BME280;4897;43.570;27.832;2024-02-23T00:37:54;98818.78;;;5.49;100.00
9717;BME280;4897;43.570;27.832;2024-02-23T00:40:21;98957.34;;;6.41;100.00
9717;BME280;4897;43.570;27.832;2024-02-23T00:42:50;98950.97;;;6.43;100.00
9717;BME280;4897;43.570;27.832;2024-02-23T00:45:17;98886.75;;;6.13;100.00
9717;BME280;4897;43.570;27.832;2024-02-23T00:47:44;98945.00;;;6.53;100.00
9717;BME280;4897;43.570;27.832;2024-02-23T00:50:12;98950.94;;;6.56;100.00
9717;BME280;4897;43.570;27.832;2024-02-23T00:52:39;98949.00;;;6.58;100.00
9717;BME280;4897;43.570;27.832;2024-02-23T00:55:08;98940.75;;;6.50;100.00
9717;BME280;4897;43.570;27.832;2024-02-23T00:57:35;98938.59;;;6.55;100.00
9717;BME280;4897;43.570;27.832;2024-02-23T01:00:04;98936.06;;;6.54;100.00
9717;BME280;4897;43.570;27.832;2024-02-23T01:02:31;98933.06;;;6.58;100.00
9717;BME280;4897;43.570;27.832;2024-02-23T01:04:59;98912.63;;;6.35;100.00
9717;BME280;4897;43.570;27.832;2024-02-23T01:07:26;98918.03;;;6.46;100.00
9717;BME280;4897;43.570;27.832;2024-02-23T01:09:53;98907.16;;;6.49;100.00
9717;BME280;4897;43.570;27.832;2024-02-23T01:12:20;98911.34;;;6.28;100.00
9717;BME280;4897;43.570;27.832;2024-02-23T01:14:47;98898.53;;;6.22;100.00
9717;BME280;4897;43.570;27.832;2024-02-23T01:17:15;98881.53;;;6.24;100.00
9717;BME280;4897;43.570;27.832;2024-02-23T01:19:43;98897.31;;;6.38;100.00
9717;BME280;4897;43.570;27.832;2024-02-23T01:22:10;98871.16;;;6.21;100.00
9717;BME280;4897;43.570;27.832;2024-02-23T01:24:37;98880.25;;;6.30;100.00
9717;BME280;4897;43.570;27.832;2024-02-23T01:27:04;98882.47;;;6.36;100.00
9717;BME280;4897;43.570;27.832;2024-02-23T01:29:31;98882.97;;;6.41;100.00
9717;BME280;4897;43.570;27.832;2024-02-23T01:31:58;98873.31;;;6.40;100.00
9717;BME280;4897;43.570;27.832;2024-02-23T01:34:26;98879.53;;;6.52;100.00
9717;BME280;4897;43.570;27.832;2024-02-23T01:36:53;98885.88;;;6.62;100.00
9717;BME280;4897;43.570;27.832;2024-02-23T01:39:20;98886.53;;;6.65;100.00
9717;BME280;4897;43.570;27.832;2024-02-23T01:41:47;98854.03;;;6.49;100.00
9717;BME280;4897;43.570;27.832;2024-02-23T01:44:14;98886.06;;;6.71;100.00
9717;BME280;4897;43.570;27.832;2024-02-23T01:46:43;98880.97;;;6.68;100.00
9717;BME280;4897;43.570;27.832;2024-02-23T01:49:10;98846.59;;;6.54;100.00
9717;BME280;4897;43.570;27.832;2024-02-23T01:51:41;98856.03;;;6.58;100.00
9717;BME280;4897;43.570;27.832;2024-02-23T01:54:08;98870.75;;;6.75;100.00
9717;BME280;4897;43.570;27.832;2024-02-23T01:56:36;98858.25;;;6.64;100.00
9717;BME280;4897;43.570;27.832;2024-02-23T01:59:06;98872.50;;;6.63;100.00
9717;BME280;4897;43.570;27.832;2024-02-23T02:01:33;98879.72;;;6.85;100.00
9717;BME280;4897;43.570;27.832;2024-02-23T02:04:00;98865.56;;;6.84;100.00
9717;BME280;4897;43.570;27.832;2024-02-23T02:06:27;98871.06;;;6.94;100.00
9717;BME280;4897;43.570;27.832;2024-02-23T02:08:55;98872.66;;;6.96;100.00
9717;BME280;4897;43.570;27.832;2024-02-23T02:11:22;98874.59;;;7.05;100.00
9717;BME280;4897;43.570;27.832;2024-02-23T02:13:49;98736.13;;;6.28;100.00
9717;BME280;4897;43.570;27.832;2024-02-23T02:16:16;98866.53;;;7.07;100.00
9717;BME280;4897;43.570;27.832;2024-02-23T02:18:43;98862.94;;;7.19;100.00
9717;BME280;4897;43.570;27.832;2024-02-23T02:21:11;98860.16;;;7.20;100.00
9717;BME280;4897;43.570;27.832;2024-02-23T02:23:38;98860.69;;;7.25;100.00
9717;BME280;4897;43.570;27.832;2024-02-23T02:26:07;98859.81;;;7.25;100.00
9717;BME280;4897;43.570;27.832;2024-02-23T02:28:34;98845.16;;;7.08;100.00
9717;BME280;4897;43.570;27.832;2024-02-23T02:31:01;98856.78;;;7.18;100.00
9717;BME280;4897;43.570;27.832;2024-02-23T02:33:28;98862.34;;;7.26;100.00
9717;BME280;4897;43.570;27.832;2024-02-23T02:35:55;98860.03;;;7.22;100.00
9717;BME280;4897;43.570;27.832;2024-02-23T02:38:22;98852.19;;;7.20;100.00
9717;BME280;4897;43.570;27.832;2024-02-23T02:40:49;98874.06;;;7.24;100.00
9717;BME280;4897;43.570;27.832;2024-02-23T02:43:17;98862.34;;;7.26;100.00
9717;BME280;4897;43.570;27.832;2024-02-23T02:45:48;98825.81;;;7.06;100.00
9717;BME280;4897;43.570;27.832;2024-02-23T02:48:15;98857.75;;;7.17;100.00
9717;BME280;4897;43.570;27.832;2024-02-23T02:50:42;98862.09;;;7.18;100.00
9717;BME280;4897;43.570;27.832;2024-02-23T02:53:09;98861.22;;;7.07;100.00
9717;BME280;4897;43.570;27.832;2024-02-23T02:55:36;98776.88;;;6.74;100.00
9717;BME280;4897;43.570;27.832;2024-02-23T02:58:04;98790.44;;;6.82;100.00
9717;BME280;4897;43.570;27.832;2024-02-23T03:00:32;98858.97;;;7.24;100.00
9717;BME280;4897;43.570;27.832;2024-02-23T03:02:59;98859.81;;;7.25;100.00
9717;BME280;4897;43.570;27.832;2024-02-23T03:05:29;98841.03;;;7.15;100.00
9717;BME280;4897;43.570;27.832;2024-02-23T03:07:59;98841.50;;;7.09;100.00
9717;BME280;4897;43.570;27.832;2024-02-23T03:10:26;98858.22;;;7.22;100.00
9717;BME280;4897;43.570;27.832;2024-02-23T03:12:53;98860.13;;;7.09;100.00
9717;BME280;4897;43.570;27.832;2024-02-23T03:15:19;98632.88;;;5.78;100.00
9717;BME280;4897;43.570;27.832;2024-02-23T03:17:50;98846.34;;;7.04;100.00
9717;BME280;4897;43.570;27.832;2024-02-23T03:20:17;98870.06;;;7.18;100.00
9717;BME280;4897;43.570;27.832;2024-02-23T03:22:44;98846.59;;;7.12;100.00
9717;BME280;4897;43.570;27.832;2024-02-23T03:25:11;98855.56;;;7.22;100.00
9717;BME280;4897;43.570;27.832;2024-02-23T03:27:38;98852.78;;;7.24;100.00
9717;BME280;4897;43.570;27.832;2024-02-23T03:30:06;98851.72;;;7.26;100.00
9717;BME280;4897;43.570;27.832;2024-02-23T03:32:34;98847.25;;;7.27;100.00
9717;BME280;4897;43.570;27.832;2024-02-23T03:35:06;98831.44;;;7.25;100.00
9717;BME280;4897;43.570;27.832;2024-02-23T03:37:33;98830.22;;;7.30;100.00
9717;BME280;4897;43.570;27.832;2024-02-23T03:40:00;98843.19;;;7.34;100.00
9717;BME280;4897;43.570;27.832;2024-02-23T03:42:27;98827.78;;;7.26;100.00
9717;BME280;4897;43.570;27.832;2024-02-23T03:44:54;98643.66;;;6.11;100.00
9717;BME280;4897;43.570;27.832;2024-02-23T03:47:21;98840.59;;;7.33;100.00
9717;BME280;4897;43.570;27.832;2024-02-23T03:49:48;98820.78;;;7.25;100.00
9717;BME280;4897;43.570;27.832;2024-02-23T03:52:16;98839.06;;;7.41;100.00
9717;BME280;4897;43.570;27.832;2024-02-23T03:54:43;98824.91;;;7.41;100.00
9717;BME280;4897;43.570;27.832;2024-02-23T03:57:10;98833.38;;;7.46;100.00
9717;BME280;4897;43.570;27.832;2024-02-23T03:59:37;98844.28;;;7.54;100.00
9717;BME280;4897;43.570;27.832;2024-02-23T04:02:04;98824.34;;;7.48;100.00
9717;BME280;4897;43.570;27.832;2024-02-23T04:04:31;98843.34;;;7.55;100.00
9717;BME280;4897;43.570;27.832;2024-02-23T04:06:58;98740.47;;;6.87;100.00
9717;BME280;4897;43.570;27.832;2024-02-23T04:09:26;98822.13;;;7.53;100.00
9717;BME280;4897;43.570;27.832;2024-02-23T04:11:53;98805.31;;;7.31;100.00
9717;BME280;4897;43.570;27.832;2024-02-23T04:14:20;98835.56;;;7.52;100.00
9717;BME280;4897;43.570;27.832;2024-02-23T04:16:47;98821.44;;;7.40;100.00
9717;BME280;4897;43.570;27.832;2024-02-23T04:19:14;98842.59;;;7.53;100.00
9717;BME280;4897;43.570;27.832;2024-02-23T04:21:41;98837.28;;;7.53;100.00
9717;BME280;4897;43.570;27.832;2024-02-23T04:24:08;98838.22;;;7.52;100.00
9717;BME280;4897;43.570;27.832;2024-02-23T04:26:36;98837.28;;;7.53;100.00
9717;BME280;4897;43.570;27.832;2024-02-23T04:29:03;98827.34;;;7.44;100.00
9717;BME280;4897;43.570;27.832;2024-02-23T04:31:30;98839.94;;;7.53;100.00
9717;BME280;4897;43.570;27.832;2024-02-23T04:33:57;98836.44;;;7.52;100.00
9717;BME280;4897;43.570;27.832;2024-02-23T04:36:24;98829.78;;;7.58;100.00
9717;BME280;4897;43.570;27.832;2024-02-23T04:38:51;98791.75;;;7.22;100.00
9717;BME280;4897;43.570;27.832;2024-02-23T04:41:19;98823.22;;;7.40;100.00
9717;BME280;4897;43.570;27.832;2024-02-23T04:43:49;98798.06;;;7.33;100.00
9717;BME280;4897;43.570;27.832;2024-02-23T04:46:16;98840.91;;;7.63;100.00
9717;BME280;4897;43.570;27.832;2024-02-23T04:48:43;98836.53;;;7.62;100.00
9717;BME280;4897;43.570;27.832;2024-02-23T04:51:10;98845.16;;;7.65;100.00
9717;BME280;4897;43.570;27.832;2024-02-23T04:53:37;98835.59;;;7.63;100.00
9717;BME280;4897;43.570;27.832;2024-02-23T04:56:05;98839.59;;;7.68;100.00
9717;BME280;4897;43.570;27.832;2024-02-23T04:58:32;98831.00;;;7.65;100.00
9717;BME280;4897;43.570;27.832;2024-02-23T05:01:00;98822.50;;;7.60;100.00
9717;BME280;4897;43.570;27.832;2024-02-23T05:03:28;98849.75;;;7.63;100.00
9717;BME280;4897;43.570;27.832;2024-02-23T05:05:55;98843.34;;;7.77;100.00
9717;BME280;4897;43.570;27.832;2024-02-23T05:08:23;98842.84;;;7.72;100.00
9717;BME280;4897;43.570;27.832;2024-02-23T05:10:50;98816.25;;;7.61;100.00
9717;BME280;4897;43.570;27.832;2024-02-23T05:13:17;98858.81;;;7.83;100.00
9717;BME280;4897;43.570;27.832;2024-02-23T05:15:44;98870.47;;;7.82;100.00
9717;BME280;4897;43.570;27.832;2024-02-23T05:18:12;98840.56;;;7.78;100.00
9717;BME280;4897;43.570;27.832;2024-02-23T05:20:39;98853.75;;;7.91;100.00
9717;BME280;4897;43.570;27.832;2024-02-23T05:23:06;98829.44;;;7.73;100.00
9717;BME280;4897;43.570;27.832;2024-02-23T05:25:34;98885.19;;;7.97;100.00
9717;BME280;4897;43.570;27.832;2024-02-23T05:28:00;98883.03;;;8.02;100.00
9717;BME280;4897;43.570;27.832;2024-02-23T05:30:28;98861.38;;;7.95;100.00
9717;BME280;4897;43.570;27.832;2024-02-23T05:32:56;98876.75;;;8.14;100.00
9717;BME280;4897;43.570;27.832;2024-02-23T05:35:25;98886.53;;;8.25;100.00
9717;BME280;4897;43.570;27.832;2024-02-23T05:37:53;98874.09;;;8.25;100.00
9717;BME280;4897;43.570;27.832;2024-02-23T05:40:20;98885.00;;;8.33;100.00
9717;BME280;4897;43.570;27.832;2024-02-23T05:42:48;98886.66;;;8.45;100.00
9717;BME280;4897;43.570;27.832;2024-02-23T05:45:14;98874.56;;;8.41;100.00
9717;BME280;4897;43.570;27.832;2024-02-23T05:47:41;98863.19;;;8.50;100.00
9717;BME280;4897;43.570;27.832;2024-02-23T05:50:08;98864.84;;;8.51;100.00
9717;BME280;4897;43.570;27.832;2024-02-23T05:52:37;98879.97;;;8.62;100.00
9717;BME280;4897;43.570;27.832;2024-02-23T05:55:05;98882.03;;;8.69;100.00
9717;BME280;4897;43.570;27.832;2024-02-23T05:57:33;98775.53;;;8.14;100.00
9717;BME280;4897;43.570;27.832;2024-02-23T06:00:00;98875.31;;;8.86;100.00
9717;BME280;4897;43.570;27.832;2024-02-23T06:02:27;98850.50;;;8.74;100.00
9717;BME280;4897;43.570;27.832;2024-02-23T06:04:54;98879.88;;;8.95;100.00
9717;BME280;4897;43.570;27.832;2024-02-23T06:07:20;98875.81;;;9.12;100.00
9717;BME280;4897;43.570;27.832;2024-02-23T06:09:55;98679.00;;;8.01;100.00
9717;BME280;4897;43.570;27.832;2024-02-23T06:12:24;98855.06;;;9.15;100.00
9717;BME280;4897;43.570;27.832;2024-02-23T06:14:52;98831.91;;;9.16;100.00
9717;BME280;4897;43.570;27.832;2024-02-23T06:17:20;98787.44;;;8.84;100.00
9717;BME280;4897;43.570;27.832;2024-02-23T06:19:48;98879.78;;;9.49;100.00
9717;BME280;4897;43.570;27.832;2024-02-23T06:22:16;98873.63;;;9.58;100.00
9717;BME280;4897;43.570;27.832;2024-02-23T06:24:46;98865.81;;;9.66;100.00
9717;BME280;4897;43.570;27.832;2024-02-23T06:27:15;98847.06;;;9.56;100.00
9717;BME280;4897;43.570;27.832;2024-02-23T06:29:42;98806.56;;;9.51;100.00
9717;BME280;4897;43.570;27.832;2024-02-23T06:32:09;98878.41;;;10.05;100.00
9717;BME280;4897;43.570;27.832;2024-02-23T06:34:35;98863.19;;;10.26;100.00
9717;BME280;4897;43.570;27.832;2024-02-23T06:37:03;98869.28;;;10.48;100.00
9717;BME280;4897;43.570;27.832;2024-02-23T06:39:30;98868.53;;;10.76;100.00
9717;BME280;4897;43.570;27.832;2024-02-23T06:41:56;98868.78;;;10.63;100.00
9717;BME280;4897;43.570;27.832;2024-02-23T06:44:27;98871.59;;;10.62;100.00
9717;BME280;4897;43.570;27.832;2024-02-23T06:46:54;98855.38;;;10.54;100.00
9717;BME280;4897;43.570;27.832;2024-02-23T06:49:21;98875.56;;;10.77;100.00
9717;BME280;4897;43.570;27.832;2024-02-23T06:51:51;98868.84;;;10.82;100.00
9717;BME280;4897;43.570;27.832;2024-02-23T06:54:20;98857.25;;;10.63;100.00
9717;BME280;4897;43.570;27.832;2024-02-23T06:56:47;98880.38;;;10.92;100.00
9717;BME280;4897;43.570;27.832;2024-02-23T06:59:14;98871.09;;;11.06;100.00
9717;BME280;4897;43.570;27.832;2024-02-23T07:01:52;98864.06;;;11.34;100.00
9717;BME280;4897;43.570;27.832;2024-02-23T07:04:19;98877.97;;;11.56;100.00
9717;BME280;4897;43.570;27.832;2024-02-23T07:06:46;98865.84;;;11.52;100.00
9717;BME280;4897;43.570;27.832;2024-02-23T07:09:13;98862.75;;;11.66;100.00
9717;BME280;4897;43.570;27.832;2024-02-23T07:11:40;98878.72;;;11.68;100.00
9717;BME280;4897;43.570;27.832;2024-02-23T07:14:09;98870.94;;;11.74;100.00
9717;BME280;4897;43.570;27.832;2024-02-23T07:16:37;98876.69;;;11.79;100.00
9717;BME280;4897;43.570;27.832;2024-02-23T07:19:06;98878.78;;;11.85;100.00
9717;BME280;4897;43.570;27.832;2024-02-23T07:21:34;98881.50;;;11.76;100.00
9717;BME280;4897;43.570;27.832;2024-02-23T07:24:01;98869.47;;;11.89;100.00
9717;BME280;4897;43.570;27.832;2024-02-23T07:26:28;98870.75;;;11.95;100.00
9717;BME280;4897;43.570;27.832;2024-02-23T07:28:55;98880.13;;;12.18;100.00
9717;BME280;4897;43.570;27.832;2024-02-23T07:31:22;98876.63;;;12.45;100.00
9717;BME280;4897;43.570;27.832;2024-02-23T07:33:49;98869.34;;;12.55;100.00
9717;BME280;4897;43.570;27.832;2024-02-23T07:36:18;98871.25;;;12.72;100.00
9717;BME280;4897;43.570;27.832;2024-02-23T07:38:45;98843.19;;;12.84;100.00
9717;BME280;4897;43.570;27.832;2024-02-23T07:41:12;98875.44;;;13.19;100.00
9717;BME280;4897;43.570;27.832;2024-02-23T07:43:39;98826.22;;;13.28;100.00
9717;BME280;4897;43.570;27.832;2024-02-23T07:46:06;98873.75;;;13.79;100.00
9717;BME280;4897;43.570;27.832;2024-02-23T07:48:34;98873.97;;;13.86;100.00
9717;BME280;4897;43.570;27.832;2024-02-23T07:51:02;98872.28;;;14.10;100.00
9717;BME280;4897;43.570;27.832;2024-02-23T07:53:30;98869.88;;;13.99;100.00
9717;BME280;4897;43.570;27.832;2024-02-23T07:55:59;98769.13;;;13.78;100.00
9717;BME280;4897;43.570;27.832;2024-02-23T07:58:28;98857.94;;;14.61;100.00
9717;BME280;4897;43.570;27.832;2024-02-23T08:00:54;98859.97;;;14.59;100.00
9717;BME280;4897;43.570;27.832;2024-02-23T08:03:22;98877.28;;;14.65;100.00
9717;BME280;4897;43.570;27.832;2024-02-23T08:05:49;98842.34;;;14.31;100.00
9717;BME280;4897;43.570;27.832;2024-02-23T08:08:16;98870.88;;;14.50;100.00
9717;BME280;4897;43.570;27.832;2024-02-23T08:10:44;98858.19;;;14.42;100.00
9717;BME280;4897;43.570;27.832;2024-02-23T08:13:14;98874.13;;;14.69;100.00
9717;BME280;4897;43.570;27.832;2024-02-23T08:15:41;98864.25;;;14.86;100.00
9717;BME280;4897;43.570;27.832;2024-02-23T08:18:08;98839.97;;;14.62;100.00
9717;BME280;4897;43.570;27.832;2024-02-23T08:20:36;98867.88;;;14.69;100.00
9717;BME280;4897;43.570;27.832;2024-02-23T08:23:03;98803.88;;;14.05;100.00
9717;BME280;4897;43.570;27.832;2024-02-23T08:25:30;98836.69;;;14.42;100.00
9717;BME280;4897;43.570;27.832;2024-02-23T08:27:58;98860.19;;;14.74;100.00
9717;BME280;4897;43.570;27.832;2024-02-23T08:30:25;98866.91;;;14.78;100.00
9717;BME280;4897;43.570;27.832;2024-02-23T08:32:52;98867.06;;;14.68;100.00
9717;BME280;4897;43.570;27.832;2024-02-23T08:35:19;98824.94;;;14.43;100.00
9717;BME280;4897;43.570;27.832;2024-02-23T08:37:46;98867.28;;;14.41;100.00
9717;BME280;4897;43.570;27.832;2024-02-23T08:40:13;98857.50;;;14.32;100.00
9717;BME280;4897;43.570;27.832;2024-02-23T08:42:40;98856.50;;;14.33;100.00
9717;BME280;4897;43.570;27.832;2024-02-23T08:45:09;98873.72;;;14.56;100.00
9717;BME280;4897;43.570;27.832;2024-02-23T08:47:38;98873.44;;;14.67;100.00
9717;BME280;4897;43.570;27.832;2024-02-23T08:50:06;98878.56;;;14.86;100.00
9717;BME280;4897;43.570;27.832;2024-02-23T08:52:33;98762.09;;;14.60;100.00
9717;BME280;4897;43.570;27.832;2024-02-23T08:55:00;98879.41;;;16.40;100.00
9717;BME280;4897;43.570;27.832;2024-02-23T08:57:27;98861.97;;;18.25;100.00
9717;BME280;4897;43.570;27.832;2024-02-23T08:59:54;98864.00;;;19.17;100.00
9717;BME280;4897;43.570;27.832;2024-02-23T09:02:25;98857.81;;;19.59;100.00
9717;BME280;4897;43.570;27.832;2024-02-23T09:04:53;98848.56;;;20.23;100.00
9717;BME280;4897;43.570;27.832;2024-02-23T09:07:21;98869.13;;;20.73;86.93
9717;BME280;4897;43.570;27.832;2024-02-23T09:09:50;98855.50;;;20.05;91.82
9717;BME280;4897;43.570;27.832;2024-02-23T09:12:17;98872.13;;;19.95;86.85
9717;BME280;4897;43.570;27.832;2024-02-23T09:14:48;98864.22;;;19.51;89.51
9717;BME280;4897;43.570;27.832;2024-02-23T09:17:16;98859.59;;;19.94;88.92
9717;BME280;4897;43.570;27.832;2024-02-23T09:19:46;98797.59;;;19.70;85.20
9717;BME280;4897;43.570;27.832;2024-02-23T09:22:13;98867.91;;;20.41;74.89
9717;BME280;4897;43.570;27.832;2024-02-23T09:24:40;98862.22;;;20.15;80.61
9717;BME280;4897;43.570;27.832;2024-02-23T09:27:07;98862.66;;;18.56;99.40
9717;BME280;4897;43.570;27.832;2024-02-23T09:29:33;98839.84;;;18.51;100.00
9717;BME280;4897;43.570;27.832;2024-02-23T09:32:02;98846.44;;;19.49;89.27
9717;BME280;4897;43.570;27.832;2024-02-23T09:34:34;98866.78;;;20.70;70.66
9717;BME280;4897;43.570;27.832;2024-02-23T09:37:03;98859.41;;;22.17;59.74
9717;BME280;4897;43.570;27.832;2024-02-23T09:39:30;98844.72;;;22.38;53.94
9717;BME280;4897;43.570;27.832;2024-02-23T09:41:57;98855.09;;;23.38;49.52
9717;BME280;4897;43.570;27.832;2024-02-23T09:44:26;98871.25;;;23.70;45.63
9717;BME280;4897;43.570;27.832;2024-02-23T09:47:00;98863.59;;;22.13;50.16
9717;BME280;4897;43.570;27.832;2024-02-23T09:49:34;98864.19;;;22.55;50.84
9717;BME280;4897;43.570;27.832;2024-02-23T09:52:07;98860.47;;;22.03;51.01
9717;BME280;4897;43.570;27.832;2024-02-23T09:54:37;98859.38;;;22.63;48.97
9717;BME280;4897;43.570;27.832;2024-02-23T09:57:07;98845.38;;;23.48;46.21
9717;BME280;4897;43.570;27.832;2024-02-23T09:59:34;98849.34;;;24.08;45.27
9717;BME280;4897;43.570;27.832;2024-02-23T10:02:01;98824.38;;;23.49;43.73
9717;BME280;4897;43.570;27.832;2024-02-23T10:04:30;98839.72;;;23.74;44.25
9717;BME280;4897;43.570;27.832;2024-02-23T10:06:57;98840.44;;;24.37;44.29
9717;BME280;4897;43.570;27.832;2024-02-23T10:09:25;98863.25;;;23.75;41.14
9717;BME280;4897;43.570;27.832;2024-02-23T10:11:52;98838.38;;;22.64;44.80
9717;BME280;4897;43.570;27.832;2024-02-23T10:14:20;98846.63;;;22.24;49.40
9717;BME280;4897;43.570;27.832;2024-02-23T10:16:47;98847.66;;;21.58;50.82
9717;BME280;4897;43.570;27.832;2024-02-23T10:19:18;98840.38;;;23.39;44.72
9717;BME280;4897;43.570;27.832;2024-02-23T10:21:45;98835.03;;;23.81;41.32
9717;BME280;4897;43.570;27.832;2024-02-23T10:24:13;98845.16;;;24.06;40.31
9717;BME280;4897;43.570;27.832;2024-02-23T10:26:41;98832.13;;;24.01;39.25
9717;BME280;4897;43.570;27.832;2024-02-23T10:29:08;98829.41;;;22.63;44.66
9717;BME280;4897;43.570;27.832;2024-02-23T10:31:35;98840.88;;;22.72;43.20
9717;BME280;4897;43.570;27.832;2024-02-23T10:34:07;98841.47;;;23.62;40.54
9717;BME280;4897;43.570;27.832;2024-02-23T10:36:40;98829.06;;;24.40;39.90
9717;BME280;4897;43.570;27.832;2024-02-23T10:39:08;98826.19;;;24.72;39.50
9717;BME280;4897;43.570;27.832;2024-02-23T10:41:36;98832.59;;;24.84;36.51
9717;BME280;4897;43.570;27.832;2024-02-23T10:44:05;98818.09;;;23.98;37.17
9717;BME280;4897;43.570;27.832;2024-02-23T10:46:33;98802.03;;;24.87;36.27
9717;BME280;4897;43.570;27.832;2024-02-23T10:49:01;98810.13;;;25.41;35.44
9717;BME280;4897;43.570;27.832;2024-02-23T10:51:28;98762.41;;;24.23;37.16
9717;BME280;4897;43.570;27.832;2024-02-23T10:53:57;98811.75;;;24.46;35.96
9717;BME280;4897;43.570;27.832;2024-02-23T10:56:24;98807.00;;;25.26;34.63
9717;BME280;4897;43.570;27.832;2024-02-23T10:58:51;98815.94;;;24.06;34.97
9717;BME280;4897;43.570;27.832;2024-02-23T11:01:20;98811.41;;;23.69;34.82
9717;BME280;4897;43.570;27.832;2024-02-23T11:03:48;98794.06;;;24.49;32.83
9717;BME280;4897;43.570;27.832;2024-02-23T11:06:16;98752.56;;;23.48;33.32
9717;BME280;4897;43.570;27.832;2024-02-23T11:08:46;98793.81;;;24.69;32.71
9717;BME280;4897;43.570;27.832;2024-02-23T11:11:16;98811.75;;;25.01;32.54
9717;BME280;4897;43.570;27.832;2024-02-23T11:13:44;98806.22;;;25.78;30.73
9717;BME280;4897;43.570;27.832;2024-02-23T11:16:22;98767.06;;;25.18;30.60
9717;BME280;4897;43.570;27.832;2024-02-23T11:18:49;98789.78;;;25.78;29.74
9717;BME280;4897;43.570;27.832;2024-02-23T11:21:33;98797.19;;;24.34;30.51
9717;BME280;4897;43.570;27.832;2024-02-23T11:24:03;98797.16;;;24.89;30.62
9717;BME280;4897;43.570;27.832;2024-02-23T11:26:30;98808.63;;;24.00;31.26
9717;BME280;4897;43.570;27.832;2024-02-23T11:28:59;98813.28;;;22.99;33.85
9717;BME280;4897;43.570;27.832;2024-02-23T11:31:30;98771.72;;;23.42;34.41
9717;BME280;4897;43.570;27.832;2024-02-23T11:33:57;98785.88;;;23.57;35.09
9717;BME280;4897;43.570;27.832;2024-02-23T11:36:28;98793.94;;;23.70;34.64
9717;BME280;4897;43.570;27.832;2024-02-23T11:38:57;98791.94;;;24.51;33.46
9717;BME280;4897;43.570;27.832;2024-02-23T11:41:25;98783.78;;;24.63;33.02
9717;BME280;4897;43.570;27.832;2024-02-23T11:43:52;98759.66;;;24.41;33.61
9717;BME280;4897;43.570;27.832;2024-02-23T11:46:24;98778.28;;;22.96;37.42
9717;BME280;4897;43.570;27.832;2024-02-23T11:48:54;98773.81;;;24.14;35.22
9717;BME280;4897;43.570;27.832;2024-02-23T11:51:22;98773.91;;;25.69;31.63
9717;BME280;4897;43.570;27.832;2024-02-23T11:53:52;98767.84;;;26.01;31.12
9717;BME280;4897;43.570;27.832;2024-02-23T11:56:22;98751.31;;;26.20;29.86
9717;BME280;4897;43.570;27.832;2024-02-23T11:58:49;98785.22;;;25.61;30.68
9717;BME280;4897;43.570;27.832;2024-02-23T12:01:16;98796.47;;;23.96;33.39
9717;BME280;4897;43.570;27.832;2024-02-23T12:03:43;98771.91;;;23.09;35.97
9717;BME280;4897;43.570;27.832;2024-02-23T12:06:14;98768.78;;;24.17;35.05
9717;BME280;4897;43.570;27.832;2024-02-23T12:08:42;98778.47;;;22.51;36.00
9717;BME280;4897;43.570;27.832;2024-02-23T12:11:11;98761.63;;;21.70;39.65
9717;BME280;4897;43.570;27.832;2024-02-23T12:13:39;98796.75;;;22.24;40.78
9717;BME280;4897;43.570;27.832;2024-02-23T12:16:07;98758.97;;;22.98;38.02
9717;BME280;4897;43.570;27.832;2024-02-23T12:18:36;98766.09;;;23.86;34.48
9717;BME280;4897;43.570;27.832;2024-02-23T12:21:05;98806.72;;;24.01;33.49
9717;BME280;4897;43.570;27.832;2024-02-23T12:23:41;98768.66;;;23.81;33.25
9717;BME280;4897;43.570;27.832;2024-02-23T12:26:09;98788.19;;;23.53;34.01
9717;BME280;4897;43.570;27.832;2024-02-23T12:28:36;98770.50;;;23.62;33.95
9717;BME280;4897;43.570;27.832;2024-02-23T12:31:04;98777.16;;;24.16;32.56
9717;BME280;4897;43.570;27.832;2024-02-23T12:33:32;98778.31;;;24.26;33.17
9717;BME280;4897;43.570;27.832;2024-02-23T12:36:00;98766.72;;;24.85;32.61
9717;BME280;4897;43.570;27.832;2024-02-23T12:38:27;98762.09;;;25.68;31.04
9717;BME280;4897;43.570;27.832;2024-02-23T12:40:59;98770.72;;;24.65;31.58
9717;BME280;4897;43.570;27.832;2024-02-23T12:43:26;98780.47;;;24.60;31.97
9717;BME280;4897;43.570;27.832;2024-02-23T12:45:54;98766.78;;;24.79;31.83
9717;BME280;4897;43.570;27.832;2024-02-23T12:48:21;98778.81;;;25.78;29.74
9717;BME280;4897;43.570;27.832;2024-02-23T12:50:49;98766.28;;;25.59;28.59
9717;BME280;4897;43.570;27.832;2024-02-23T12:53:31;98781.38;;;24.91;28.58
9717;BME280;4897;43.570;27.832;2024-02-23T12:56:01;98767.25;;;24.39;30.10
9717;BME280;4897;43.570;27.832;2024-02-23T12:58:28;98767.94;;;23.92;31.29
9717;BME280;4897;43.570;27.832;2024-02-23T13:00:55;98767.28;;;24.76;29.65
9717;BME280;4897;43.570;27.832;2024-02-23T13:03:23;98760.19;;;24.32;29.72
9717;BME280;4897;43.570;27.832;2024-02-23T13:05:51;98754.72;;;24.86;29.56
9717;BME280;4897;43.570;27.832;2024-02-23T13:08:17;98764.59;;;25.17;29.67
9717;BME280;4897;43.570;27.832;2024-02-23T13:10:44;98726.66;;;23.82;30.58
9717;BME280;4897;43.570;27.832;2024-02-23T13:13:13;98762.84;;;24.75;29.93